sensor_id;sensor_type;location;lat;lon;timestamp;P1;durP1;ratioP1;P2;durP2;ratioP2
30998;SDS011;20549;50.042;8.968;2023-04-25T00:00:25;4.57;;;4.17;;
30998;SDS011;20549;50.042;8.968;2023-04-25T00:02:52;4.33;;;3.93;;
30998;SDS011;20549;50.042;8.968;2023-04-25T00:05:18;4.30;;;3.87;;
30998;SDS011;20549;50.042;8.968;2023-04-25T00:07:45;4.07;;;3.73;;
30998;SDS011;20549;50.042;8.968;2023-04-25T00:10:12;4.20;;;3.90;;
30998;SDS011;20549;50.042;8.968;2023-04-25T00:12:38;4.30;;;3.60;;
30998;SDS011;20549;50.042;8.968;2023-04-25T00:15:05;4.03;;;3.63;;
30998;SDS011;20549;50.042;8.968;2023-04-25T00:17:31;4.87;;;3.63;;
30998;SDS011;20549;50.042;8.968;2023-04-25T00:19:58;3.90;;;3.60;;
30998;SDS011;20549;50.042;8.968;2023-04-25T00:22:25;4.27;;;3.87;;
30998;SDS011;20549;50.042;8.968;2023-04-25T00:24:51;4.37;;;3.33;;
30998;SDS011;20549;50.042;8.968;2023-04-25T00:27:18;3.93;;;3.53;;
30998;SDS011;20549;50.042;8.968;2023-04-25T00:29:44;3.73;;;3.33;;
30998;SDS011;20549;50.042;8.968;2023-04-25T00:32:11;4.30;;;3.67;;
30998;SDS011;20549;50.042;8.968;2023-04-25T00:34:38;3.47;;;3.17;;
30998;SDS011;20549;50.042;8.968;2023-04-25T00:37:04;3.27;;;2.97;;
30998;SDS011;20549;50.042;8.968;2023-04-25T00:39:31;3.23;;;2.97;;
30998;SDS011;20549;50.042;8.968;2023-04-25T00:41:57;3.53;;;2.97;;
30998;SDS011;20549;50.042;8.968;2023-04-25T00:44:24;2.90;;;2.70;;
30998;SDS011;20549;50.042;8.968;2023-04-25T00:46:50;3.37;;;3.07;;
30998;SDS011;20549;50.042;8.968;2023-04-25T00:49:17;3.17;;;2.97;;
30998;SDS011;20549;50.042;8.968;2023-04-25T00:51:44;3.20;;;2.90;;
30998;SDS011;20549;50.042;8.968;2023-04-25T00:54:11;2.80;;;2.60;;
30998;SDS011;20549;50.042;8.968;2023-04-25T00:56:37;4.37;;;2.60;;
30998;SDS011;20549;50.042;8.968;2023-04-25T00:59:03;2.67;;;2.47;;
30998;SDS011;20549;50.042;8.968;2023-04-25T01:01:30;2.87;;;2.67;;
30998;SDS011;20549;50.042;8.968;2023-04-25T01:03:58;2.93;;;2.73;;
30998;SDS011;20549;50.042;8.968;2023-04-25T01:06:23;3.23;;;2.50;;
30998;SDS011;20549;50.042;8.968;2023-04-25T01:08:50;2.77;;;2.47;;
30998;SDS011;20549;50.042;8.968;2023-04-25T01:11:16;2.67;;;2.47;;
30998;SDS011;20549;50.042;8.968;2023-04-25T01:13:43;2.87;;;2.60;;
30998;SDS011;20549;50.042;8.968;2023-04-25T01:16:09;2.50;;;2.30;;
30998;SDS011;20549;50.042;8.968;2023-04-25T01:18:37;2.80;;;2.60;;
30998;SDS011;20549;50.042;8.968;2023-04-25T01:21:12;2.73;;;2.53;;
30998;SDS011;20549;50.042;8.968;2023-04-25T01:23:39;2.77;;;2.57;;
30998;SDS011;20549;50.042;8.968;2023-04-25T01:26:05;3.10;;;2.80;;
30998;SDS011;20549;50.042;8.968;2023-04-25T01:28:32;2.93;;;2.73;;
30998;SDS011;20549;50.042;8.968;2023-04-25T01:30:58;2.90;;;2.70;;
30998;SDS011;20549;50.042;8.968;2023-04-25T01:33:25;3.07;;;2.80;;
30998;SDS011;20549;50.042;8.968;2023-04-25T01:35:51;3.60;;;3.30;;
30998;SDS011;20549;50.042;8.968;2023-04-25T01:38:18;3.10;;;2.80;;
30998;SDS011;20549;50.042;8.968;2023-04-25T01:40:45;3.13;;;2.93;;
30998;SDS011;20549;50.042;8.968;2023-04-25T01:43:11;3.13;;;2.83;;
30998;SDS011;20549;50.042;8.968;2023-04-25T01:45:38;3.57;;;3.27;;
30998;SDS011;20549;50.042;8.968;2023-04-25T01:48:10;3.30;;;3.10;;
30998;SDS011;20549;50.042;8.968;2023-04-25T01:50:39;3.47;;;3.17;;
30998;SDS011;20549;50.042;8.968;2023-04-25T01:53:06;3.23;;;3.00;;
30998;SDS011;20549;50.042;8.968;2023-04-25T01:55:32;4.33;;;3.30;;
30998;SDS011;20549;50.042;8.968;2023-04-25T01:57:59;3.40;;;3.20;;
30998;SDS011;20549;50.042;8.968;2023-04-25T02:00:25;3.73;;;3.43;;
30998;SDS011;20549;50.042;8.968;2023-04-25T02:02:52;3.93;;;3.30;;
30998;SDS011;20549;50.042;8.968;2023-04-25T02:05:19;3.70;;;3.40;;
30998;SDS011;20549;50.042;8.968;2023-04-25T02:07:45;3.97;;;3.57;;
30998;SDS011;20549;50.042;8.968;2023-04-25T02:10:12;4.03;;;3.73;;
30998;SDS011;20549;50.042;8.968;2023-04-25T02:12:38;3.80;;;3.50;;
30998;SDS011;20549;50.042;8.968;2023-04-25T02:15:05;4.00;;;3.70;;
30998;SDS011;20549;50.042;8.968;2023-04-25T02:17:32;4.43;;;4.03;;
30998;SDS011;20549;50.042;8.968;2023-04-25T02:19:58;3.63;;;3.33;;
30998;SDS011;20549;50.042;8.968;2023-04-25T02:22:25;3.50;;;3.23;;
30998;SDS011;20549;50.042;8.968;2023-04-25T02:24:54;4.13;;;3.73;;
30998;SDS011;20549;50.042;8.968;2023-04-25T02:27:18;3.93;;;3.63;;
30998;SDS011;20549;50.042;8.968;2023-04-25T02:29:45;3.50;;;3.20;;
30998;SDS011;20549;50.042;8.968;2023-04-25T02:32:11;4.10;;;3.70;;
30998;SDS011;20549;50.042;8.968;2023-04-25T02:34:38;3.97;;;3.57;;
30998;SDS011;20549;50.042;8.968;2023-04-25T02:37:04;3.87;;;3.47;;
30998;SDS011;20549;50.042;8.968;2023-04-25T02:39:31;4.07;;;3.77;;
30998;SDS011;20549;50.042;8.968;2023-04-25T02:41:57;4.07;;;3.40;;
30998;SDS011;20549;50.042;8.968;2023-04-25T02:44:24;4.10;;;3.80;;
30998;SDS011;20549;50.042;8.968;2023-04-25T02:46:51;3.53;;;3.23;;
30998;SDS011;20549;50.042;8.968;2023-04-25T02:49:17;3.73;;;3.43;;
30998;SDS011;20549;50.042;8.968;2023-04-25T02:51:44;3.87;;;3.57;;
30998;SDS011;20549;50.042;8.968;2023-04-25T02:54:10;3.50;;;3.20;;
30998;SDS011;20549;50.042;8.968;2023-04-25T02:56:37;3.90;;;3.60;;
30998;SDS011;20549;50.042;8.968;2023-04-25T02:59:04;4.10;;;3.80;;
30998;SDS011;20549;50.042;8.968;2023-04-25T03:01:30;4.20;;;3.90;;
30998;SDS011;20549;50.042;8.968;2023-04-25T03:03:57;4.90;;;4.50;;
30998;SDS011;20549;50.042;8.968;2023-04-25T03:06:23;4.50;;;4.10;;
30998;SDS011;20549;50.042;8.968;2023-04-25T03:08:50;4.43;;;4.03;;
30998;SDS011;20549;50.042;8.968;2023-04-25T03:11:17;4.53;;;4.17;;
30998;SDS011;20549;50.042;8.968;2023-04-25T03:13:43;4.40;;;4.00;;
30998;SDS011;20549;50.042;8.968;2023-04-25T03:16:10;4.63;;;4.17;;
30998;SDS011;20549;50.042;8.968;2023-04-25T03:18:36;4.53;;;4.23;;
30998;SDS011;20549;50.042;8.968;2023-04-25T03:21:03;5.10;;;4.70;;
30998;SDS011;20549;50.042;8.968;2023-04-25T03:23:29;4.77;;;4.23;;
30998;SDS011;20549;50.042;8.968;2023-04-25T03:25:56;4.70;;;4.20;;
30998;SDS011;20549;50.042;8.968;2023-04-25T03:28:23;5.37;;;4.30;;
30998;SDS011;20549;50.042;8.968;2023-04-25T03:30:49;5.00;;;4.50;;
30998;SDS011;20549;50.042;8.968;2023-04-25T03:33:16;5.13;;;4.47;;
30998;SDS011;20549;50.042;8.968;2023-04-25T03:35:42;5.03;;;4.63;;
30998;SDS011;20549;50.042;8.968;2023-04-25T03:38:09;5.00;;;4.50;;
30998;SDS011;20549;50.042;8.968;2023-04-25T03:40:36;6.37;;;4.70;;
30998;SDS011;20549;50.042;8.968;2023-04-25T03:43:02;5.73;;;4.40;;
30998;SDS011;20549;50.042;8.968;2023-04-25T03:45:29;5.47;;;4.50;;
30998;SDS011;20549;50.042;8.968;2023-04-25T03:47:55;5.37;;;4.70;;
30998;SDS011;20549;50.042;8.968;2023-04-25T03:50:22;5.67;;;5.17;;
30998;SDS011;20549;50.042;8.968;2023-04-25T03:52:49;6.20;;;5.03;;
30998;SDS011;20549;50.042;8.968;2023-04-25T03:55:15;5.07;;;4.57;;
30998;SDS011;20549;50.042;8.968;2023-04-25T03:57:42;6.13;;;5.53;;
30998;SDS011;20549;50.042;8.968;2023-04-25T04:00:08;5.13;;;4.63;;
30998;SDS011;20549;50.042;8.968;2023-04-25T04:02:35;4.70;;;4.30;;
30998;SDS011;20549;50.042;8.968;2023-04-25T04:05:02;5.70;;;5.20;;
30998;SDS011;20549;50.042;8.968;2023-04-25T04:07:28;6.03;;;5.43;;
30998;SDS011;20549;50.042;8.968;2023-04-25T04:09:55;5.23;;;4.77;;
30998;SDS011;20549;50.042;8.968;2023-04-25T04:12:21;4.70;;;4.30;;
30998;SDS011;20549;50.042;8.968;2023-04-25T04:14:48;5.70;;;5.20;;
30998;SDS011;20549;50.042;8.968;2023-04-25T04:17:14;5.07;;;4.67;;
30998;SDS011;20549;50.042;8.968;2023-04-25T04:19:41;5.70;;;5.17;;
30998;SDS011;20549;50.042;8.968;2023-04-25T04:22:08;5.63;;;5.13;;
30998;SDS011;20549;50.042;8.968;2023-04-25T04:24:34;6.27;;;5.67;;
30998;SDS011;20549;50.042;8.968;2023-04-25T04:27:01;6.83;;;6.13;;
30998;SDS011;20549;50.042;8.968;2023-04-25T04:29:27;6.77;;;6.17;;
30998;SDS011;20549;50.042;8.968;2023-04-25T04:31:54;5.40;;;5.00;;
30998;SDS011;20549;50.042;8.968;2023-04-25T04:34:20;6.63;;;5.27;;
30998;SDS011;20549;50.042;8.968;2023-04-25T04:36:47;5.83;;;5.33;;
30998;SDS011;20549;50.042;8.968;2023-04-25T04:39:14;6.87;;;5.50;;
30998;SDS011;20549;50.042;8.968;2023-04-25T04:41:40;6.37;;;5.77;;
30998;SDS011;20549;50.042;8.968;2023-04-25T04:44:07;7.33;;;5.93;;
30998;SDS011;20549;50.042;8.968;2023-04-25T04:46:33;8.30;;;5.80;;
30998;SDS011;20549;50.042;8.968;2023-04-25T04:49:00;6.30;;;5.70;;
30998;SDS011;20549;50.042;8.968;2023-04-25T04:51:27;5.53;;;4.97;;
30998;SDS011;20549;50.042;8.968;2023-04-25T04:53:53;5.60;;;4.70;;
30998;SDS011;20549;50.042;8.968;2023-04-25T04:56:20;5.63;;;4.97;;
30998;SDS011;20549;50.042;8.968;2023-04-25T04:58:46;7.10;;;4.90;;
30998;SDS011;20549;50.042;8.968;2023-04-25T05:01:13;5.90;;;4.87;;
30998;SDS011;20549;50.042;8.968;2023-04-25T05:03:40;6.00;;;4.60;;
30998;SDS011;20549;50.042;8.968;2023-04-25T05:06:06;7.03;;;4.77;;
30998;SDS011;20549;50.042;8.968;2023-04-25T05:08:33;7.20;;;4.47;;
30998;SDS011;20549;50.042;8.968;2023-04-25T05:10:59;6.03;;;4.90;;
30998;SDS011;20549;50.042;8.968;2023-04-25T05:13:26;5.33;;;4.67;;
30998;SDS011;20549;50.042;8.968;2023-04-25T05:15:52;7.70;;;5.13;;
30998;SDS011;20549;50.042;8.968;2023-04-25T05:18:19;8.63;;;5.03;;
30998;SDS011;20549;50.042;8.968;2023-04-25T05:20:46;9.40;;;4.83;;
30998;SDS011;20549;50.042;8.968;2023-04-25T05:23:12;6.50;;;5.00;;
30998;SDS011;20549;50.042;8.968;2023-04-25T05:25:39;5.30;;;4.70;;
30998;SDS011;20549;50.042;8.968;2023-04-25T05:28:05;10.10;;;5.30;;
30998;SDS011;20549;50.042;8.968;2023-04-25T05:30:32;6.20;;;4.63;;
30998;SDS011;20549;50.042;8.968;2023-04-25T05:32:59;9.37;;;4.80;;
30998;SDS011;20549;50.042;8.968;2023-04-25T05:35:25;7.70;;;4.70;;
30998;SDS011;20549;50.042;8.968;2023-04-25T05:37:52;7.97;;;5.17;;
30998;SDS011;20549;50.042;8.968;2023-04-25T05:40:18;5.20;;;4.40;;
30998;SDS011;20549;50.042;8.968;2023-04-25T05:42:45;6.10;;;4.57;;
30998;SDS011;20549;50.042;8.968;2023-04-25T05:45:12;5.87;;;4.33;;
30998;SDS011;20549;50.042;8.968;2023-04-25T05:47:38;5.58;;;4.20;;
30998;SDS011;20549;50.042;8.968;2023-04-25T05:50:05;6.72;;;4.37;;
30998;SDS011;20549;50.042;8.968;2023-04-25T05:52:31;5.50;;;4.08;;
30998;SDS011;20549;50.042;8.968;2023-04-25T05:54:58;6.40;;;4.15;;
30998;SDS011;20549;50.042;8.968;2023-04-25T05:57:26;4.80;;;4.05;;
30998;SDS011;20549;50.042;8.968;2023-04-25T05:59:51;4.55;;;4.08;;
30998;SDS011;20549;50.042;8.968;2023-04-25T06:02:18;6.00;;;3.90;;
30998;SDS011;20549;50.042;8.968;2023-04-25T06:04:44;7.58;;;4.40;;
30998;SDS011;20549;50.042;8.968;2023-04-25T06:07:11;4.80;;;4.30;;
30998;SDS011;20549;50.042;8.968;2023-04-25T06:09:38;6.30;;;4.25;;
30998;SDS011;20549;50.042;8.968;2023-04-25T06:12:04;4.35;;;3.35;;
30998;SDS011;20549;50.042;8.968;2023-04-25T06:14:31;5.17;;;3.90;;
30998;SDS011;20549;50.042;8.968;2023-04-25T06:16:57;4.95;;;3.90;;
30998;SDS011;20549;50.042;8.968;2023-04-25T06:19:24;4.62;;;3.85;;
30998;SDS011;20549;50.042;8.968;2023-04-25T06:21:51;4.78;;;3.65;;
30998;SDS011;20549;50.042;8.968;2023-04-25T06:24:17;4.33;;;3.80;;
30998;SDS011;20549;50.042;8.968;2023-04-25T06:26:44;5.33;;;3.40;;
30998;SDS011;20549;50.042;8.968;2023-04-25T06:29:10;4.60;;;3.05;;
30998;SDS011;20549;50.042;8.968;2023-04-25T06:31:37;2.72;;;2.52;;
30998;SDS011;20549;50.042;8.968;2023-04-25T06:34:03;5.80;;;3.10;;
30998;SDS011;20549;50.042;8.968;2023-04-25T06:36:30;4.17;;;2.90;;
30998;SDS011;20549;50.042;8.968;2023-04-25T06:38:57;4.00;;;2.70;;
30998;SDS011;20549;50.042;8.968;2023-04-25T06:41:23;3.80;;;2.45;;
30998;SDS011;20549;50.042;8.968;2023-04-25T06:43:50;3.95;;;2.42;;
30998;SDS011;20549;50.042;8.968;2023-04-25T06:46:16;5.60;;;2.90;;
30998;SDS011;20549;50.042;8.968;2023-04-25T06:48:43;3.72;;;2.55;;
30998;SDS011;20549;50.042;8.968;2023-04-25T06:51:10;2.92;;;2.17;;
30998;SDS011;20549;50.042;8.968;2023-04-25T06:53:37;2.60;;;2.02;;
30998;SDS011;20549;50.042;8.968;2023-04-25T06:56:04;4.08;;;2.05;;
30998;SDS011;20549;50.042;8.968;2023-04-25T06:58:31;4.72;;;1.80;;
30998;SDS011;20549;50.042;8.968;2023-04-25T07:00:57;2.33;;;2.12;;
30998;SDS011;20549;50.042;8.968;2023-04-25T07:03:24;4.67;;;2.37;;
30998;SDS011;20549;50.042;8.968;2023-04-25T07:05:50;4.65;;;2.30;;
30998;SDS011;20549;50.042;8.968;2023-04-25T07:08:17;3.50;;;2.22;;
30998;SDS011;20549;50.042;8.968;2023-04-25T07:10:44;2.47;;;1.90;;
30998;SDS011;20549;50.042;8.968;2023-04-25T07:13:10;3.40;;;2.08;;
30998;SDS011;20549;50.042;8.968;2023-04-25T07:15:37;5.40;;;3.60;;
30998;SDS011;20549;50.042;8.968;2023-04-25T07:18:03;1.87;;;1.77;;
30998;SDS011;20549;50.042;8.968;2023-04-25T07:20:30;2.17;;;1.98;;
30998;SDS011;20549;50.042;8.968;2023-04-25T07:22:57;3.42;;;2.30;;
30998;SDS011;20549;50.042;8.968;2023-04-25T07:25:23;3.52;;;2.50;;
30998;SDS011;20549;50.042;8.968;2023-04-25T07:27:50;2.60;;;1.87;;
30998;SDS011;20549;50.042;8.968;2023-04-25T07:30:16;2.85;;;2.15;;
30998;SDS011;20549;50.042;8.968;2023-04-25T07:32:43;3.37;;;2.00;;
30998;SDS011;20549;50.042;8.968;2023-04-25T07:35:09;4.47;;;2.08;;
30998;SDS011;20549;50.042;8.968;2023-04-25T07:37:36;2.40;;;2.10;;
30998;SDS011;20549;50.042;8.968;2023-04-25T07:40:03;3.25;;;2.08;;
30998;SDS011;20549;50.042;8.968;2023-04-25T07:42:29;2.45;;;1.90;;
30998;SDS011;20549;50.042;8.968;2023-04-25T07:44:56;2.40;;;2.20;;
30998;SDS011;20549;50.042;8.968;2023-04-25T07:47:22;3.55;;;2.30;;
30998;SDS011;20549;50.042;8.968;2023-04-25T07:49:49;3.30;;;2.33;;
30998;SDS011;20549;50.042;8.968;2023-04-25T07:52:16;3.45;;;2.00;;
30998;SDS011;20549;50.042;8.968;2023-04-25T07:54:42;2.20;;;1.82;;
30998;SDS011;20549;50.042;8.968;2023-04-25T07:57:09;2.30;;;2.02;;
30998;SDS011;20549;50.042;8.968;2023-04-25T07:59:35;4.15;;;2.42;;
30998;SDS011;20549;50.042;8.968;2023-04-25T08:02:02;1.98;;;1.85;;
30998;SDS011;20549;50.042;8.968;2023-04-25T08:04:29;3.52;;;2.00;;
30998;SDS011;20549;50.042;8.968;2023-04-25T08:06:55;2.75;;;2.10;;
30998;SDS011;20549;50.042;8.968;2023-04-25T08:09:22;2.25;;;2.05;;
30998;SDS011;20549;50.042;8.968;2023-04-25T08:11:48;2.22;;;1.90;;
30998;SDS011;20549;50.042;8.968;2023-04-25T08:14:15;2.37;;;1.70;;
30998;SDS011;20549;50.042;8.968;2023-04-25T08:16:41;2.98;;;2.00;;
30998;SDS011;20549;50.042;8.968;2023-04-25T08:19:08;3.27;;;2.20;;
30998;SDS011;20549;50.042;8.968;2023-04-25T08:21:35;2.20;;;2.00;;
30998;SDS011;20549;50.042;8.968;2023-04-25T08:24:01;2.45;;;1.90;;
30998;SDS011;20549;50.042;8.968;2023-04-25T08:26:28;3.30;;;2.15;;
30998;SDS011;20549;50.042;8.968;2023-04-25T08:28:54;2.75;;;1.85;;
30998;SDS011;20549;50.042;8.968;2023-04-25T08:31:21;3.87;;;1.90;;
30998;SDS011;20549;50.042;8.968;2023-04-25T08:33:48;3.80;;;1.87;;
30998;SDS011;20549;50.042;8.968;2023-04-25T08:36:14;2.65;;;1.85;;
30998;SDS011;20549;50.042;8.968;2023-04-25T08:38:41;2.00;;;1.70;;
30998;SDS011;20549;50.042;8.968;2023-04-25T08:41:07;2.98;;;1.85;;
30998;SDS011;20549;50.042;8.968;2023-04-25T08:43:34;2.50;;;2.12;;
30998;SDS011;20549;50.042;8.968;2023-04-25T08:46:01;3.37;;;1.95;;
30998;SDS011;20549;50.042;8.968;2023-04-25T08:48:27;3.15;;;1.80;;
30998;SDS011;20549;50.042;8.968;2023-04-25T08:50:54;3.33;;;2.20;;
30998;SDS011;20549;50.042;8.968;2023-04-25T08:53:32;2.37;;;2.00;;
30998;SDS011;20549;50.042;8.968;2023-04-25T08:55:56;3.95;;;2.10;;
30998;SDS011;20549;50.042;8.968;2023-04-25T08:58:23;2.20;;;2.00;;
30998;SDS011;20549;50.042;8.968;2023-04-25T09:00:49;2.83;;;2.20;;
30998;SDS011;20549;50.042;8.968;2023-04-25T09:03:16;3.08;;;2.25;;
30998;SDS011;20549;50.042;8.968;2023-04-25T09:05:42;3.90;;;2.30;;
30998;SDS011;20549;50.042;8.968;2023-04-25T09:08:09;2.37;;;1.98;;
30998;SDS011;20549;50.042;8.968;2023-04-25T09:10:35;4.37;;;2.17;;
30998;SDS011;20549;50.042;8.968;2023-04-25T09:13:05;2.17;;;1.95;;
30998;SDS011;20549;50.042;8.968;2023-04-25T09:15:32;2.62;;;2.05;;
30998;SDS011;20549;50.042;8.968;2023-04-25T09:17:58;2.40;;;2.20;;
30998;SDS011;20549;50.042;8.968;2023-04-25T09:20:24;2.62;;;2.02;;
30998;SDS011;20549;50.042;8.968;2023-04-25T09:23:03;3.70;;;2.22;;
30998;SDS011;20549;50.042;8.968;2023-04-25T09:25:33;3.47;;;2.15;;
30998;SDS011;20549;50.042;8.968;2023-04-25T09:27:56;2.37;;;1.90;;
30998;SDS011;20549;50.042;8.968;2023-04-25T09:30:29;2.47;;;2.20;;
30998;SDS011;20549;50.042;8.968;2023-04-25T09:33:05;2.15;;;1.95;;
30998;SDS011;20549;50.042;8.968;2023-04-25T09:35:34;2.58;;;2.37;;
30998;SDS011;20549;50.042;8.968;2023-04-25T09:37:58;4.33;;;2.37;;
30998;SDS011;20549;50.042;8.968;2023-04-25T09:40:24;2.80;;;2.60;;
30998;SDS011;20549;50.042;8.968;2023-04-25T09:42:51;3.17;;;2.33;;
30998;SDS011;20549;50.042;8.968;2023-04-25T09:45:17;3.45;;;2.72;;
30998;SDS011;20549;50.042;8.968;2023-04-25T09:47:44;3.77;;;2.37;;
30998;SDS011;20549;50.042;8.968;2023-04-25T09:50:14;2.75;;;2.25;;
30998;SDS011;20549;50.042;8.968;2023-04-25T09:52:40;4.30;;;3.47;;
30998;SDS011;20549;50.042;8.968;2023-04-25T09:55:07;3.02;;;2.67;;
30998;SDS011;20549;50.042;8.968;2023-04-25T09:57:33;4.85;;;2.67;;
30998;SDS011;20549;50.042;8.968;2023-04-25T10:00:00;2.47;;;2.15;;
30998;SDS011;20549;50.042;8.968;2023-04-25T10:02:27;3.30;;;2.25;;
30998;SDS011;20549;50.042;8.968;2023-04-25T10:04:54;2.60;;;2.40;;
30998;SDS011;20549;50.042;8.968;2023-04-25T10:07:26;2.40;;;2.20;;
30998;SDS011;20549;50.042;8.968;2023-04-25T10:09:49;3.72;;;2.30;;
30998;SDS011;20549;50.042;8.968;2023-04-25T10:12:16;3.00;;;2.30;;
30998;SDS011;20549;50.042;8.968;2023-04-25T10:14:43;2.17;;;1.98;;
30998;SDS011;20549;50.042;8.968;2023-04-25T10:17:10;2.60;;;2.37;;
30998;SDS011;20549;50.042;8.968;2023-04-25T10:19:36;3.95;;;2.65;;
30998;SDS011;20549;50.042;8.968;2023-04-25T10:22:04;3.00;;;2.50;;
30998;SDS011;20549;50.042;8.968;2023-04-25T10:24:29;4.10;;;2.12;;
30998;SDS011;20549;50.042;8.968;2023-04-25T10:26:55;2.42;;;2.22;;
30998;SDS011;20549;50.042;8.968;2023-04-25T10:29:23;3.65;;;2.33;;
30998;SDS011;20549;50.042;8.968;2023-04-25T10:31:51;2.30;;;2.10;;
30998;SDS011;20549;50.042;8.968;2023-04-25T10:34:18;3.15;;;2.10;;
30998;SDS011;20549;50.042;8.968;2023-04-25T10:36:50;2.55;;;2.33;;
30998;SDS011;20549;50.042;8.968;2023-04-25T10:39:26;2.50;;;2.35;;
30998;SDS011;20549;50.042;8.968;2023-04-25T10:41:58;3.22;;;2.08;;
30998;SDS011;20549;50.042;8.968;2023-04-25T10:44:30;2.85;;;2.30;;
30998;SDS011;20549;50.042;8.968;2023-04-25T10:46:57;2.65;;;2.10;;
30998;SDS011;20549;50.042;8.968;2023-04-25T10:52:45;2.35;;;1.90;;
30998;SDS011;20549;50.042;8.968;2023-04-25T10:54:46;2.72;;;2.12;;
30998;SDS011;20549;50.042;8.968;2023-04-25T10:57:28;3.58;;;2.40;;
30998;SDS011;20549;50.042;8.968;2023-04-25T10:59:54;4.25;;;2.90;;
30998;SDS011;20549;50.042;8.968;2023-04-25T11:02:20;3.02;;;2.80;;
30998;SDS011;20549;50.042;8.968;2023-04-25T11:04:47;2.80;;;2.15;;
30998;SDS011;20549;50.042;8.968;2023-04-25T11:07:17;2.67;;;2.42;;
30998;SDS011;20549;50.042;8.968;2023-04-25T11:09:40;4.53;;;2.87;;
30998;SDS011;20549;50.042;8.968;2023-04-25T11:12:09;3.52;;;2.90;;
30998;SDS011;20549;50.042;8.968;2023-04-25T11:14:36;3.42;;;2.83;;
30998;SDS011;20549;50.042;8.968;2023-04-25T11:17:02;4.35;;;2.70;;
30998;SDS011;20549;50.042;8.968;2023-04-25T11:19:29;3.33;;;2.25;;
30998;SDS011;20549;50.042;8.968;2023-04-25T11:21:56;2.37;;;2.17;;
30998;SDS011;20549;50.042;8.968;2023-04-25T11:24:28;2.37;;;2.17;;
30998;SDS011;20549;50.042;8.968;2023-04-25T11:26:51;2.92;;;2.50;;
30998;SDS011;20549;50.042;8.968;2023-04-25T11:29:18;2.58;;;2.37;;
30998;SDS011;20549;50.042;8.968;2023-04-25T11:31:45;3.10;;;2.80;;
30998;SDS011;20549;50.042;8.968;2023-04-25T11:34:11;4.90;;;3.15;;
30998;SDS011;20549;50.042;8.968;2023-04-25T11:36:38;2.80;;;2.60;;
30998;SDS011;20549;50.042;8.968;2023-04-25T11:39:04;4.33;;;2.40;;
30998;SDS011;20549;50.042;8.968;2023-04-25T11:41:31;2.60;;;2.40;;
30998;SDS011;20549;50.042;8.968;2023-04-25T11:43:58;2.50;;;2.30;;
30998;SDS011;20549;50.042;8.968;2023-04-25T11:46:24;4.03;;;2.37;;
30998;SDS011;20549;50.042;8.968;2023-04-25T11:48:51;2.98;;;2.62;;
30998;SDS011;20549;50.042;8.968;2023-04-25T11:51:17;2.80;;;2.42;;
30998;SDS011;20549;50.042;8.968;2023-04-25T11:53:44;2.12;;;1.98;;
30998;SDS011;20549;50.042;8.968;2023-04-25T11:56:11;2.00;;;1.77;;
30998;SDS011;20549;50.042;8.968;2023-04-25T12:01:32;2.10;;;1.90;;
30998;SDS011;20549;50.042;8.968;2023-04-25T12:03:58;3.58;;;2.15;;
30998;SDS011;20549;50.042;8.968;2023-04-25T12:06:27;2.02;;;1.80;;
30998;SDS011;20549;50.042;8.968;2023-04-25T12:09:03;4.35;;;2.00;;
30998;SDS011;20549;50.042;8.968;2023-04-25T12:11:30;2.27;;;2.02;;
30998;SDS011;20549;50.042;8.968;2023-04-25T12:14:01;1.72;;;1.62;;
30998;SDS011;20549;50.042;8.968;2023-04-25T12:16:23;2.25;;;1.90;;
30998;SDS011;20549;50.042;8.968;2023-04-25T12:18:51;1.90;;;1.80;;
30998;SDS011;20549;50.042;8.968;2023-04-25T12:21:16;2.27;;;1.80;;
30998;SDS011;20549;50.042;8.968;2023-04-25T12:23:43;3.35;;;1.82;;
30998;SDS011;20549;50.042;8.968;2023-04-25T12:26:09;2.37;;;1.92;;
30998;SDS011;20549;50.042;8.968;2023-04-25T12:28:36;3.15;;;2.77;;
30998;SDS011;20549;50.042;8.968;2023-04-25T12:31:03;2.08;;;1.70;;
30998;SDS011;20549;50.042;8.968;2023-04-25T12:33:30;2.10;;;1.90;;
30998;SDS011;20549;50.042;8.968;2023-04-25T12:35:56;2.40;;;1.90;;
30998;SDS011;20549;50.042;8.968;2023-04-25T12:38:23;2.77;;;1.65;;
30998;SDS011;20549;50.042;8.968;2023-04-25T12:40:52;4.28;;;2.45;;
30998;SDS011;20549;50.042;8.968;2023-04-25T12:43:18;2.10;;;1.80;;
30998;SDS011;20549;50.042;8.968;2023-04-25T12:45:47;2.55;;;1.80;;
30998;SDS011;20549;50.042;8.968;2023-04-25T12:48:11;2.52;;;1.90;;
30998;SDS011;20549;50.042;8.968;2023-04-25T12:50:38;2.45;;;1.52;;
30998;SDS011;20549;50.042;8.968;2023-04-25T12:53:04;2.77;;;2.12;;
30998;SDS011;20549;50.042;8.968;2023-04-25T12:55:31;3.77;;;2.00;;
30998;SDS011;20549;50.042;8.968;2023-04-25T12:57:58;2.80;;;1.90;;
30998;SDS011;20549;50.042;8.968;2023-04-25T13:00:24;2.75;;;1.70;;
30998;SDS011;20549;50.042;8.968;2023-04-25T13:02:51;4.35;;;1.90;;
30998;SDS011;20549;50.042;8.968;2023-04-25T13:05:17;2.25;;;1.70;;
30998;SDS011;20549;50.042;8.968;2023-04-25T13:07:44;3.08;;;2.30;;
30998;SDS011;20549;50.042;8.968;2023-04-25T13:10:11;3.83;;;1.80;;
30998;SDS011;20549;50.042;8.968;2023-04-25T13:12:37;3.77;;;1.82;;
30998;SDS011;20549;50.042;8.968;2023-04-25T13:15:04;4.25;;;2.00;;
30998;SDS011;20549;50.042;8.968;2023-04-25T13:17:30;2.85;;;1.60;;
30998;SDS011;20549;50.042;8.968;2023-04-25T13:19:57;2.70;;;1.87;;
30998;SDS011;20549;50.042;8.968;2023-04-25T13:22:23;4.37;;;1.98;;
30998;SDS011;20549;50.042;8.968;2023-04-25T13:24:50;3.22;;;2.02;;
30998;SDS011;20549;50.042;8.968;2023-04-25T13:27:17;2.65;;;1.80;;
30998;SDS011;20549;50.042;8.968;2023-04-25T13:29:43;4.50;;;1.82;;
30998;SDS011;20549;50.042;8.968;2023-04-25T13:32:10;3.67;;;2.10;;
30998;SDS011;20549;50.042;8.968;2023-04-25T13:34:36;2.25;;;1.87;;
30998;SDS011;20549;50.042;8.968;2023-04-25T13:37:03;3.65;;;1.90;;
30998;SDS011;20549;50.042;8.968;2023-04-25T13:39:30;3.50;;;1.92;;
30998;SDS011;20549;50.042;8.968;2023-04-25T13:41:56;5.87;;;2.20;;
30998;SDS011;20549;50.042;8.968;2023-04-25T13:44:23;3.37;;;2.00;;
30998;SDS011;20549;50.042;8.968;2023-04-25T13:46:49;2.85;;;2.22;;
30998;SDS011;20549;50.042;8.968;2023-04-25T13:49:16;1.98;;;1.72;;
30998;SDS011;20549;50.042;8.968;2023-04-25T13:51:43;2.47;;;1.77;;
30998;SDS011;20549;50.042;8.968;2023-04-25T13:54:09;2.33;;;1.95;;
30998;SDS011;20549;50.042;8.968;2023-04-25T13:56:36;3.95;;;1.95;;
30998;SDS011;20549;50.042;8.968;2023-04-25T13:59:02;5.35;;;1.82;;
30998;SDS011;20549;50.042;8.968;2023-04-25T14:01:29;2.30;;;2.10;;
30998;SDS011;20549;50.042;8.968;2023-04-25T14:03:56;2.22;;;1.95;;
30998;SDS011;20549;50.042;8.968;2023-04-25T14:06:22;3.77;;;2.17;;
30998;SDS011;20549;50.042;8.968;2023-04-25T14:08:49;3.08;;;1.90;;
30998;SDS011;20549;50.042;8.968;2023-04-25T14:11:15;3.12;;;1.82;;
30998;SDS011;20549;50.042;8.968;2023-04-25T14:13:42;2.75;;;2.25;;
30998;SDS011;20549;50.042;8.968;2023-04-25T14:16:08;3.50;;;2.10;;
30998;SDS011;20549;50.042;8.968;2023-04-25T14:18:35;3.67;;;2.00;;
30998;SDS011;20549;50.042;8.968;2023-04-25T14:21:02;3.10;;;2.08;;
30998;SDS011;20549;50.042;8.968;2023-04-25T14:23:28;4.65;;;2.30;;
30998;SDS011;20549;50.042;8.968;2023-04-25T14:25:55;4.67;;;2.10;;
30998;SDS011;20549;50.042;8.968;2023-04-25T14:28:21;4.78;;;2.33;;
30998;SDS011;20549;50.042;8.968;2023-04-25T14:30:48;3.67;;;1.98;;
30998;SDS011;20549;50.042;8.968;2023-04-25T14:33:15;4.92;;;1.80;;
30998;SDS011;20549;50.042;8.968;2023-04-25T14:35:41;3.00;;;1.98;;
30998;SDS011;20549;50.042;8.968;2023-04-25T14:38:08;3.00;;;2.05;;
30998;SDS011;20549;50.042;8.968;2023-04-25T14:40:34;6.15;;;2.00;;
30998;SDS011;20549;50.042;8.968;2023-04-25T14:43:01;3.02;;;1.70;;
30998;SDS011;20549;50.042;8.968;2023-04-25T14:45:28;2.50;;;2.30;;
30998;SDS011;20549;50.042;8.968;2023-04-25T14:47:54;3.90;;;1.95;;
30998;SDS011;20549;50.042;8.968;2023-04-25T14:50:21;3.77;;;1.82;;